Time;durP1;ratioP1;P1;durP2;ratioP2;P2;SDS_P1;SDS_P2;PMS_P1;PMS_P2;Temp;Humidity;BMP_temperature;BMP_pressure;BME280_temperature;BME280_humidity;BME280_pressure;Samples;Min_cycle;Max_cycle;Signal;HPM_P1;HPM_P2
2021/08/23 00:02:05;;;;;;;8.20;6.10;;;;;;;20.67;63.70;100641.72;5051052;28;20079;-68
2021/08/23 00:04:31;;;;;;;9.25;6.50;;;;;;;21.20;63.71;100716.81;5050810;28;20090;-67
2021/08/23 00:06:56;;;;;;;8.57;5.93;;;;;;;20.88;62.99;100670.56;5050513;28;20046;-68
2021/08/23 00:09:22;;;;;;;10.40;7.00;;;;;;;20.95;63.70;100722.16;5049594;28;20026;-68
2021/08/23 00:11:48;;;;;;;9.50;6.07;;;;;;;20.95;64.10;100716.91;5051066;28;20036;-67
2021/08/23 00:14:13;;;;;;;9.73;6.40;;;;;;;20.97;63.83;100718.66;5054305;28;20090;-68
2021/08/23 00:16:39;;;;;;;10.68;6.72;;;;;;;20.40;65.05;100717.78;5053213;28;20031;-68
2021/08/23 00:19:04;;;;;;;11.57;6.40;;;;;;;20.09;65.99;100721.25;5053812;28;20505;-68
2021/08/23 00:21:30;;;;;;;9.50;6.47;;;;;;;19.91;65.76;100681.91;5054787;28;20406;-68
2021/08/23 00:24:17;;;;;;;7.93;5.95;;;;;;;20.17;65.77;100721.25;5054583;28;20475;-67
2021/08/23 00:26:43;;;;;;;10.32;6.45;;;;;;;19.85;67.29;100712.47;5054062;28;20067;-68
2021/08/23 00:29:08;;;;;;;11.45;6.63;;;;;;;19.92;66.92;100717.72;5054022;28;20060;-70
2021/08/23 00:31:34;;;;;;;9.70;6.63;;;;;;;19.64;67.88;100707.13;5054183;28;20536;-68
2021/08/23 00:33:59;;;;;;;12.05;6.97;;;;;;;19.72;67.33;100705.41;5054108;28;20143;-68
2021/08/23 00:36:25;;;;;;;9.32;6.68;;;;;;;19.97;66.63;100718.59;5052148;28;20040;-68
2021/08/23 00:38:50;;;;;;;10.05;6.78;;;;;;;20.12;65.73;100700.28;5053951;28;20025;-68
2021/08/23 00:41:16;;;;;;;8.60;6.30;;;;;;;20.01;65.67;100670.56;5053959;28;20047;-67
2021/08/23 00:43:41;;;;;;;10.15;6.88;;;;;;;20.17;65.45;100700.28;5053815;28;20029;-68
2021/08/23 00:46:06;;;;;;;7.65;6.53;;;;;;;20.16;65.45;100707.28;5053928;28;20029;-67
2021/08/23 00:48:33;;;;;;;9.35;6.65;;;;;;;19.92;66.32;100702.88;5053861;28;20044;-68
2021/08/23 00:51:01;;;;;;;9.32;6.68;;;;;;;19.77;66.53;100680.09;5053812;28;20024;-68
2021/08/23 00:53:28;;;;;;;8.38;6.60;;;;;;;19.69;67.26;100705.41;5053612;28;20099;-66
2021/08/23 00:55:53;;;;;;;9.32;6.28;;;;;;;19.02;69.05;100644.06;5053793;28;20061;-67
2021/08/23 00:58:21;;;;;;;7.85;6.72;;;;;;;19.47;68.72;100701.84;5053771;28;20080;-68
2021/08/23 01:00:56;;;;;;;11.35;6.78;;;;;;;19.42;68.98;100700.94;5053740;28;20055;-68
2021/08/23 01:03:35;;;;;;;8.00;6.35;;;;;;;19.36;69.23;100689.56;5053565;28;20434;-68
2021/08/23 01:06:04;;;;;;;11.23;7.32;;;;;;;19.39;69.03;100692.19;5053729;28;20091;-66
2021/08/23 01:08:37;;;;;;;8.68;7.22;;;;;;;19.49;68.99;100693.13;5053229;28;20061;-68
2021/08/23 01:11:06;;;;;;;10.70;7.30;;;;;;;19.65;68.23;100682.69;5053271;28;20538;-69
2021/08/23 01:13:32;;;;;;;8.85;7.00;;;;;;;19.84;67.51;100699.38;5053490;28;20395;-67
2021/08/23 01:15:58;;;;;;;9.15;7.20;;;;;;;20.01;66.89;100695.03;5053341;28;20447;-68
2021/08/23 01:18:29;;;;;;;10.10;7.40;;;;;;;19.96;66.85;100682.78;5053004;28;20039;-68
2021/08/23 01:20:55;;;;;;;10.13;6.90;;;;;;;19.98;66.58;100681.06;5053037;28;20052;-68
2021/08/23 01:23:22;;;;;;;10.10;7.50;;;;;;;19.82;66.93;100657.38;5052565;28;20064;-68
2021/08/23 01:25:49;;;;;;;8.45;7.13;;;;;;;20.12;65.98;100700.28;5053416;28;20029;-70
2021/08/23 01:28:39;;;;;;;8.38;6.50;;;;;;;19.98;66.61;100688.91;5053172;28;20078;-68
2021/08/23 01:31:05;;;;;;;12.45;7.32;;;;;;;19.98;66.88;100694.16;5052955;28;20028;-68
2021/08/23 01:33:31;;;;;;;9.32;7.38;;;;;;;19.85;67.45;100691.50;5052799;28;20028;-68
2021/08/23 01:35:59;;;;;;;9.52;6.88;;;;;;;19.54;68.40;100696.63;5053088;28;20083;-70
2021/08/23 01:38:28;;;;;;;9.73;7.53;;;;;;;19.29;69.70;100690.41;5052704;28;20395;-68
2021/08/23 01:41:05;;;;;;;9.98;7.35;;;;;;;19.26;69.86;100679.06;5053036;28;20031;-68
2021/08/23 01:43:31;;;;;;;10.02;7.47;;;;;;;19.34;69.72;100696.53;5052439;28;20029;-70
2021/08/23 01:45:57;;;;;;;11.07;7.88;;;;;;;19.25;70.37;100686.00;5052552;28;20047;-69
2021/08/23 01:48:23;;;;;;;9.23;7.63;;;;;;;19.39;69.60;100691.34;5052652;28;20471;-67
2021/08/23 01:50:48;;;;;;;11.13;7.53;;;;;;;19.39;69.42;100679.09;5052927;28;20029;-68
2021/08/23 01:53:16;;;;;;;10.23;7.57;;;;;;;19.08;70.67;100683.34;5052461;28;20036;-69
2021/08/23 01:55:46;;;;;;;10.73;7.90;;;;;;;18.96;70.71;100638.78;5052898;28;20112;-66
2021/08/23 01:58:12;;;;;;;;;;;;;;;19.17;70.57;100683.38;5053353;28;20052;-67
2021/08/23 02:00:37;;;;;;;11.05;7.95;;;;;;;19.16;71.29;100684.22;5052260;28;19920;-68
2021/08/23 02:03:03;;;;;;;11.80;8.02;;;;;;;19.31;70.34;100682.56;5052694;28;20025;-68
2021/08/23 02:05:29;;;;;;;8.50;7.43;;;;;;;19.40;69.88;100683.47;5052311;28;20024;-72
2021/08/23 02:07:55;;;;;;;11.95;7.90;;;;;;;19.51;69.32;100691.34;5052357;28;20025;-67
2021/08/23 02:10:21;;;;;;;10.40;7.85;;;;;;;19.50;69.17;100684.41;5052053;28;20029;-68
2021/08/23 02:12:46;;;;;;;9.95;7.38;;;;;;;19.22;70.39;100686.88;5052005;28;20025;-68
2021/08/23 02:15:12;;;;;;;9.68;7.40;;;;;;;19.41;69.49;100679.09;5052049;28;20060;-68
2021/08/23 02:17:37;;;;;;;11.40;7.60;;;;;;;19.44;69.55;100687.00;5051852;28;20460;-67
2021/08/23 02:20:05;;;;;;;8.63;7.55;;;;;;;19.46;69.76;100669.53;5051923;28;20028;-68
2021/08/23 02:22:31;;;;;;;13.80;7.60;;;;;;;19.66;68.77;100668.72;5051669;28;20037;-68
2021/08/23 02:24:56;;;;;;;9.68;7.68;;;;;;;19.90;68.35;100682.78;5052033;28;20495;-68
2021/08/23 02:27:22;;;;;;;12.73;8.07;;;;;;;20.04;67.33;100691.53;5052027;28;20078;-67
2021/08/23 02:29:47;;;;;;;11.32;7.60;;;;;;;20.19;66.60;100680.19;5051645;28;20037;-66
2021/08/23 02:32:13;;;;;;;12.73;7.90;;;;;;;20.19;66.51;100680.19;5051875;28;20043;-68
2021/08/23 02:34:38;;;;;;;8.35;7.25;;;;;;;20.11;66.49;100685.44;5066449;28;20548;-69
2021/08/23 02:37:03;;;;;;;11.95;8.05;;;;;;;20.07;67.06;100681.03;5051039;28;20495;-68
2021/08/23 02:39:29;;;;;;;10.05;8.35;;;;;;;19.66;68.00;100634.66;5051682;28;20031;-68
2021/08/23 02:41:54;;;;;;;11.35;7.93;;;;;;;19.91;68.23;100676.66;5051707;28;20086;-68
2021/08/23 02:44:21;;;;;;;11.52;7.80;;;;;;;19.91;68.03;100680.16;5051602;28;20053;-66
2021/08/23 02:46:47;;;;;;;12.50;8.70;;;;;;;19.98;67.80;100670.56;5051567;28;20483;-68
2021/08/23 02:49:13;;;;;;;10.40;8.02;;;;;;;20.02;67.62;100667.06;5051751;28;20025;-67
2021/08/23 02:51:38;;;;;;;11.00;8.50;;;;;;;19.91;67.26;100642.59;5051561;28;20498;-68
2021/08/23 02:54:04;;;;;;;11.05;7.90;;;;;;;20.11;67.16;100677.59;5051335;28;20025;-67
2021/08/23 02:56:29;;;;;;;9.27;7.85;;;;;;;20.01;67.29;100674.06;5050700;28;20033;-68
2021/08/23 02:58:55;;;;;;;12.02;8.30;;;;;;;20.02;67.51;100683.66;5051184;28;20060;-68
2021/08/23 03:01:20;;;;;;;12.80;8.23;;;;;;;20.12;67.15;100684.53;5049516;28;20037;-68
2021/08/23 03:03:45;;;;;;;10.30;8.07;;;;;;;20.20;66.72;100681.94;5051510;28;20052;-66
2021/08/23 03:06:12;;;;;;;11.60;8.50;;;;;;;20.22;66.22;100679.31;5051114;28;20061;-68
2021/08/23 03:08:38;;;;;;;11.55;8.18;;;;;;;20.16;66.52;100675.84;5051304;28;20040;-68
2021/08/23 03:11:11;;;;;;;9.23;8.15;;;;;;;20.15;66.67;100675.81;5050213;28;20471;-66
2021/08/23 03:13:38;;;;;;;12.45;8.00;;;;;;;20.10;66.82;100685.41;5051139;28;20052;-68
2021/08/23 03:16:04;;;;;;;10.15;7.95;;;;;;;20.24;66.07;100682.81;5051342;28;20028;-68
2021/08/23 03:18:31;;;;;;;10.60;7.90;;;;;;;20.30;65.42;100682.81;5051175;28;20033;-67
2021/08/23 03:20:56;;;;;;;11.93;8.27;;;;;;;20.28;65.04;100682.81;5051133;28;20078;-67
2021/08/23 03:23:22;;;;;;;10.93;8.00;;;;;;;20.24;64.73;100674.94;5051102;28;20020;-68
2021/08/23 03:25:47;;;;;;;12.13;8.23;;;;;;;20.25;64.74;100690.69;5050830;28;20053;-68
2021/08/23 03:28:13;;;;;;;17.30;8.93;;;;;;;20.07;65.62;100691.53;5050951;28;20029;-68
2021/08/23 03:30:39;;;;;;;13.32;7.78;;;;;;;20.16;66.54;100688.94;5051210;28;20479;-68
2021/08/23 03:33:04;;;;;;;17.83;8.23;;;;;;;20.29;64.96;100688.94;5051191;28;20208;-68
2021/08/23 03:35:30;;;;;;;20.52;8.70;;;;;;;20.35;64.55;100696.81;5051128;28;20490;-68
2021/08/23 03:37:55;;;;;;;21.85;8.60;;;;;;;20.32;64.49;100688.94;5051246;28;20025;-68
2021/08/23 03:40:20;;;;;;;12.88;8.38;;;;;;;20.40;64.09;100692.44;5050883;28;20115;-68
2021/08/23 03:42:46;;;;;;;18.80;9.10;;;;;;;20.36;64.77;100681.06;5050934;28;20017;-68
2021/08/23 03:45:11;;;;;;;15.57;8.10;;;;;;;20.32;64.66;100684.56;5051054;28;20386;-68
2021/08/23 03:47:37;;;;;;;18.23;8.02;;;;;;;20.30;63.78;100681.06;5052797;28;20459;-68
2021/08/23 03:50:03;;;;;;;16.38;8.90;;;;;;;20.36;63.30;100693.28;5054802;28;20051;-68
2021/08/23 03:52:29;;;;;;;26.08;7.57;;;;;;;20.25;63.63;100700.28;5054859;28;20095;-69
2021/08/23 03:54:54;;;;;;;21.92;9.02;;;;;;;20.22;63.35;100698.53;5054908;28;20470;-68
2021/08/23 03:57:19;;;;;;;19.30;7.80;;;;;;;20.00;63.73;100674.03;5054986;28;20068;-68
2021/08/23 03:59:45;;;;;;;18.50;9.10;;;;;;;20.16;63.33;100690.66;5055182;28;20029;-68
2021/08/23 04:02:10;;;;;;;17.95;9.13;;;;;;;20.27;64.08;100695.94;5054844;28;20029;-68
2021/08/23 04:04:36;;;;;;;24.80;8.88;;;;;;;20.25;64.15;100698.56;5052691;28;20055;-68
2021/08/23 04:07:01;;;;;;;16.52;9.05;;;;;;;20.23;64.57;100696.81;5054687;28;20029;-68
2021/08/23 04:09:27;;;;;;;33.67;9.25;;;;;;;20.20;65.13;100693.31;5053107;28;20029;-67
2021/08/23 04:11:52;;;;;;;23.40;8.82;;;;;;;20.28;64.95;100703.78;5054360;28;20029;-68
2021/08/23 04:14:18;;;;;;;18.92;9.90;;;;;;;20.26;64.86;100696.78;5054718;28;20116;-68
2021/08/23 04:16:43;;;;;;;15.57;9.68;;;;;;;20.26;64.90;100700.31;5054820;28;20454;-68
2021/08/23 04:19:09;;;;;;;15.52;8.88;;;;;;;20.23;64.98;100687.19;5054363;28;20109;-68
2021/08/23 04:21:34;;;;;;;14.73;8.70;;;;;;;20.14;65.63;100695.06;5054286;28;20163;-67
2021/08/23 04:24:00;;;;;;;18.67;8.80;;;;;;;19.89;66.68;100697.63;5054237;28;20049;-67
2021/08/23 04:26:25;;;;;;;16.63;8.73;;;;;;;19.80;67.06;100701.06;5053906;28;20021;-68
2021/08/23 04:28:51;;;;;;;15.13;8.93;;;;;;;19.61;67.07;100681.78;5053925;28;20024;-70
2021/08/23 04:31:16;;;;;;;20.10;9.18;;;;;;;19.69;66.93;100702.78;5054185;28;20029;-71
2021/08/23 04:33:45;;;;;;;22.23;8.10;;;;;;;19.77;65.74;100695.81;5054000;28;20021;-68
2021/08/23 04:36:11;;;;;;;24.90;8.68;;;;;;;19.94;65.47;100698.50;5054155;28;20028;-67
2021/08/23 04:38:36;;;;;;;15.23;8.48;;;;;;;20.07;64.86;100693.28;5053832;28;20426;-68
2021/08/23 04:41:02;;;;;;;19.20;8.70;;;;;;;20.23;64.36;100696.81;5031518;28;20045;-68
2021/08/23 04:43:27;;;;;;;21.45;8.73;;;;;;;20.32;63.99;100704.66;5031716;28;20071;-68
2021/08/23 04:45:53;;;;;;;19.52;9.02;;;;;;;20.35;64.44;100707.31;5031475;28;20544;-68
2021/08/23 04:48:18;;;;;;;16.50;8.65;;;;;;;20.32;64.56;100702.03;5031580;28;21989;-68
2021/08/23 04:50:43;;;;;;;17.75;9.25;;;;;;;20.29;64.75;100694.19;5031568;28;20038;-68
2021/08/23 04:53:09;;;;;;;20.48;9.75;;;;;;;19.93;65.30;100656.59;5031548;28;20040;-70
2021/08/23 04:55:34;;;;;;;17.40;9.10;;;;;;;20.16;66.24;100677.56;5031352;28;20656;-68
2021/08/23 04:58:00;;;;;;;21.00;10.48;;;;;;;20.40;66.63;100700.31;5030929;28;20174;-68
2021/08/23 05:00:25;;;;;;;13.93;9.10;;;;;;;20.41;66.63;100693.31;5030583;28;20103;-68
2021/08/23 05:02:51;;;;;;;15.15;8.73;;;;;;;20.51;66.67;100695.03;5031330;28;20030;-68
2021/08/23 05:05:16;;;;;;;21.60;10.60;;;;;;;20.48;67.06;100655.72;5031381;28;20507;-68
2021/08/23 05:07:42;;;;;;;14.63;9.05;;;;;;;20.64;67.20;100695.94;5031125;28;20088;-68
2021/08/23 05:10:08;;;;;;;21.90;10.05;;;;;;;20.62;67.49;100681.94;5031157;28;20553;-67
2021/08/23 05:12:33;;;;;;;16.83;10.20;;;;;;;20.77;67.60;100694.19;5047244;28;20041;-68
2021/08/23 05:14:59;;;;;;;23.80;9.70;;;;;;;20.83;68.61;100695.03;5053325;28;20025;-66
2021/08/23 05:17:25;;;;;;;18.58;9.85;;;;;;;20.83;69.29;100695.03;5051577;28;20494;-71
2021/08/23 05:19:52;;;;;;;15.77;9.70;;;;;;;20.79;70.52;100705.56;5047430;28;20029;-68
2021/08/23 05:22:17;;;;;;;13.75;9.75;;;;;;;20.77;71.23;100707.31;5043924;28;20058;-68
2021/08/23 05:24:43;;;;;;;15.93;9.77;;;;;;;20.82;71.19;100701.19;5050086;28;20025;-66
2021/08/23 05:27:08;;;;;;;15.15;10.70;;;;;;;20.91;71.41;100707.28;5052808;28;20025;-66
2021/08/23 05:29:34;;;;;;;13.45;10.25;;;;;;;20.91;71.24;100702.03;5052832;28;20402;-73
2021/08/23 05:31:59;;;;;;;14.73;10.25;;;;;;;21.03;71.29;100699.38;5052902;28;20029;-67
2021/08/23 05:34:25;;;;;;;15.45;9.70;;;;;;;20.92;71.50;100699.41;5052383;28;20031;-68
2021/08/23 05:36:50;;;;;;;15.98;10.30;;;;;;;20.80;72.19;100702.94;5052623;28;20609;-68
2021/08/23 05:39:16;;;;;;;16.33;10.27;;;;;;;20.86;72.13;100702.06;5049121;28;20445;-72
2021/08/23 05:41:41;;;;;;;17.42;10.38;;;;;;;21.00;71.78;100702.03;5048067;28;20119;-70
2021/08/23 05:44:07;;;;;;;24.73;10.95;;;;;;;21.15;71.55;100703.72;5048087;28;20021;-70
2021/08/23 05:46:33;;;;;;;26.83;13.35;;;;;;;21.25;71.38;100702.81;5051161;28;20053;-71
2021/08/23 05:48:58;;;;;;;24.15;11.75;;;;;;;21.26;71.16;100703.69;5052313;28;20402;-68
2021/08/23 05:51:23;;;;;;;18.02;10.73;;;;;;;21.40;70.42;100707.13;5052184;28;20017;-68
2021/08/23 05:53:49;;;;;;;21.15;12.07;;;;;;;21.44;70.43;100708.00;5052193;28;20021;-68
2021/08/23 05:56:14;;;;;;;21.00;11.63;;;;;;;21.50;69.44;100700.97;5051717;28;20024;-69
2021/08/23 05:58:40;;;;;;;21.45;12.20;;;;;;;21.42;69.72;100694.88;5052647;28;20069;-73
2021/08/23 06:01:06;;;;;;;14.10;9.80;;;;;;;21.50;68.32;100708.84;5052314;28;20017;-67
2021/08/23 06:03:33;;;;;;;11.57;8.43;;;;;;;21.58;66.17;100703.59;5052090;28;20063;-67
2021/08/23 06:06:08;;;;;;;13.43;9.20;;;;;;;21.41;66.35;100685.25;5052050;28;20048;-68
2021/08/23 06:08:36;;;;;;;13.27;8.57;;;;;;;21.51;66.77;100707.09;5049544;28;20090;-68
2021/08/23 06:11:02;;;;;;;10.35;8.07;;;;;;;21.46;67.40;100699.22;5051721;28;20112;-71
2021/08/23 06:13:29;;;;;;;13.50;8.45;;;;;;;21.50;68.20;100687.81;5051840;28;20104;-68
2021/08/23 06:15:55;;;;;;;9.35;7.78;;;;;;;21.70;66.44;100697.41;5048698;28;20494;-68
2021/08/23 06:18:22;;;;;;;11.77;9.93;;;;;;;21.74;66.69;100704.38;5048986;28;20049;-73
2021/08/23 06:20:47;;;;;;;17.02;9.75;;;;;;;21.68;66.47;100703.53;5051127;28;20032;-67
2021/08/23 06:23:13;;;;;;;15.00;10.13;;;;;;;21.88;66.04;100698.16;5051523;28;20029;-68
2021/08/23 06:25:38;;;;;;;12.55;9.77;;;;;;;22.16;65.04;100703.22;5050396;28;20021;-69
2021/08/23 06:28:04;;;;;;;13.52;9.80;;;;;;;22.05;65.63;100706.81;5051901;28;20463;-68
2021/08/23 06:30:29;;;;;;;16.65;9.50;;;;;;;21.84;65.65;100664.91;5051729;28;20475;-70
2021/08/23 06:32:55;;;;;;;15.95;9.70;;;;;;;22.34;64.76;100703.09;5051358;28;20475;-68
2021/08/23 06:35:20;;;;;;;13.73;9.60;;;;;;;22.49;64.47;100706.53;5046894;28;20033;-69
2021/08/23 06:37:46;;;;;;;14.48;9.55;;;;;;;22.53;63.95;100674.94;5051213;28;20457;-68
2021/08/23 06:40:11;;;;;;;14.23;10.25;;;;;;;22.44;64.24;100662.72;5051645;28;20025;-68
2021/08/23 06:42:38;;;;;;;19.08;10.65;;;;;;;22.77;65.08;100702.75;5051152;28;20475;-67
2021/08/23 06:45:05;;;;;;;13.00;9.95;;;;;;;22.80;64.78;100698.34;5051175;28;20025;-68
2021/08/23 06:47:31;;;;;;;12.02;9.35;;;;;;;22.99;63.97;100702.56;5050932;28;20029;-68
2021/08/23 06:49:56;;;;;;;15.13;9.07;;;;;;;23.16;63.41;100697.09;5050859;28;20036;-68
2021/08/23 06:52:22;;;;;;;19.17;13.63;;;;;;;23.10;64.24;100679.59;5051294;28;20017;-72
2021/08/23 06:54:47;;;;;;;17.95;13.32;;;;;;;22.85;64.37;100701.81;5050789;28;20029;-68
2021/08/23 06:57:12;;;;;;;14.60;11.65;;;;;;;22.59;64.68;100659.09;5051121;28;20053;-68
2021/08/23 06:59:38;;;;;;;15.73;11.27;;;;;;;23.07;64.03;100690.16;5044329;28;20036;-68
2021/08/23 07:02:04;;;;;;;13.50;11.68;;;;;;;23.06;65.50;100682.28;5043049;28;20162;-68
2021/08/23 07:04:29;;;;;;;12.82;9.70;;;;;;;23.15;64.73;100676.88;5050358;28;20017;-67
2021/08/23 07:06:55;;;;;;;15.95;8.57;;;;;;;23.44;63.37;100680.97;5044658;28;20435;-69
2021/08/23 07:09:20;;;;;;;10.98;7.78;;;;;;;23.65;63.59;100678.94;5050814;28;20021;-68
2021/08/23 07:11:46;;;;;;;12.40;8.38;;;;;;;23.90;62.19;100671.53;5050979;28;20606;-67
2021/08/23 07:14:11;;;;;;;16.23;9.73;;;;;;;23.86;61.39;100673.38;5048555;28;20037;-68
2021/08/23 07:16:36;;;;;;;66.32;43.00;;;;;;;23.96;61.74;100679.38;5051162;28;20032;-67
2021/08/23 07:19:02;;;;;;;24.67;14.63;;;;;;;23.90;61.12;100674.16;5051037;28;20039;-68
2021/08/23 07:21:28;;;;;;;13.90;8.15;;;;;;;23.85;58.68;100683.91;5050166;28;20013;-69
2021/08/23 07:23:53;;;;;;;11.57;7.38;;;;;;;24.05;58.03;100681.91;5050643;28;20086;-70
2021/08/23 07:26:19;;;;;;;16.63;9.55;;;;;;;24.27;56.77;100681.53;5046475;28;20031;-70
2021/08/23 07:28:44;;;;;;;10.73;7.38;;;;;;;24.34;53.72;100680.53;5046104;28;20029;-69
2021/08/23 07:31:10;;;;;;;15.77;7.80;;;;;;;24.20;53.83;100632.41;5050522;28;20108;-67
2021/08/23 07:33:35;;;;;;;14.90;6.40;;;;;;;24.60;54.76;100671.31;5050129;28;20120;-70
2021/08/23 07:36:01;;;;;;;16.85;8.43;;;;;;;24.79;55.13;100669.22;5050813;28;20029;-68
2021/08/23 07:38:26;;;;;;;8.93;6.05;;;;;;;25.03;51.86;100680.22;5048165;28;20435;-70
2021/08/23 07:40:52;;;;;;;16.77;8.25;;;;;;;24.86;54.36;100644.44;5050399;28;20017;-69
2021/08/23 07:43:17;;;;;;;16.15;8.70;;;;;;;24.87;52.29;100663.78;5050048;28;20027;-70
2021/08/23 07:45:43;;;;;;;13.10;6.82;;;;;;;24.93;53.47;100682.16;5048806;28;20033;-67
2021/08/23 07:48:08;;;;;;;10.80;6.25;;;;;;;24.87;51.57;100677.88;5050365;28;20838;-69
2021/08/23 07:50:35;;;;;;;18.98;6.75;;;;;;;24.97;51.02;100677.69;5049609;28;20017;-67
2021/08/23 07:53:00;;;;;;;11.93;6.05;;;;;;;25.04;50.75;100677.53;5048003;28;20025;-68
2021/08/23 07:55:26;;;;;;;12.40;6.07;;;;;;;25.29;53.22;100669.09;5047397;28;20021;-67
2021/08/23 07:57:52;;;;;;;12.05;6.25;;;;;;;25.31;51.22;100661.13;5047009;28;20072;-67
2021/08/23 08:00:20;;;;;;;15.95;6.25;;;;;;;25.53;50.19;100666.88;5049680;28;20027;-68
2021/08/23 08:02:46;;;;;;;14.68;6.65;;;;;;;25.87;47.43;100674.06;5049832;28;20568;-68
2021/08/23 08:05:14;;;;;;;15.90;5.82;;;;;;;26.08;46.05;100669.19;5048261;28;20052;-68
2021/08/23 08:07:42;;;;;;;16.08;6.18;;;;;;;25.89;45.27;100626.41;5049746;28;20040;-70
2021/08/23 08:10:10;;;;;;;18.42;7.18;;;;;;;26.22;46.61;100674.13;5048068;28;20036;-67
2021/08/23 08:12:35;;;;;;;27.55;7.60;;;;;;;26.39;46.15;100661.31;5062696;28;20103;-74
2021/08/23 08:15:01;;;;;;;23.77;10.48;;;;;;;26.41;48.02;100659.53;5054911;28;20021;-68
2021/08/23 08:17:26;;;;;;;21.00;7.80;;;;;;;26.51;46.67;100652.22;5048562;28;20032;-68
2021/08/23 08:19:52;;;;;;;17.38;6.20;;;;;;;26.58;46.44;100655.56;5047499;28;20059;-68
2021/08/23 08:22:18;;;;;;;15.55;6.70;;;;;;;26.59;46.07;100647.59;5050264;28;20037;-67
2021/08/23 08:24:44;;;;;;;19.15;8.77;;;;;;;26.71;46.38;100651.66;5050506;28;20479;-68
2021/08/23 08:27:09;;;;;;;9.95;5.28;;;;;;;26.78;43.97;100642.69;5049215;28;20033;-70
2021/08/23 08:29:37;;;;;;;16.23;5.57;;;;;;;26.89;43.68;100642.38;5050949;28;20041;-68
2021/08/23 08:32:04;;;;;;;13.93;5.82;;;;;;;26.86;45.08;100621.28;5048253;28;20498;-69
2021/08/23 08:34:30;;;;;;;11.80;5.65;;;;;;;27.09;43.67;100640.94;5032653;28;20048;-71
2021/08/23 08:36:55;;;;;;;14.90;5.47;;;;;;;27.17;41.86;100612.44;5034480;28;20475;-70
2021/08/23 08:39:21;;;;;;;14.38;4.80;;;;;;;27.12;40.44;100604.59;5035902;28;20033;-70
2021/08/23 08:41:47;;;;;;;8.32;4.70;;;;;;;27.08;40.35;100604.75;5039382;28;20062;-70
2021/08/23 08:44:12;;;;;;;11.63;4.85;;;;;;;27.22;41.10;100615.81;5037878;28;20033;-71
2021/08/23 08:46:38;;;;;;;8.45;5.10;;;;;;;27.40;40.27;100613.53;5032711;28;20025;-71
2021/08/23 08:49:07;;;;;;;9.02;5.20;;;;;;;27.69;41.04;100620.59;5034212;28;20463;-71
2021/08/23 08:51:36;;;;;;;7.43;4.50;;;;;;;27.65;39.63;100621.59;5032733;28;20060;-71
2021/08/23 08:54:04;;;;;;;6.15;4.00;;;;;;;27.75;39.15;100622.16;5035194;28;20053;-71
2021/08/23 08:56:34;;;;;;;7.65;4.47;;;;;;;27.72;40.60;100586.00;5039397;28;20029;-70
2021/08/23 08:59:00;;;;;;;8.35;4.63;;;;;;;28.07;39.97;100607.84;5034689;28;20446;-69
2021/08/23 09:01:26;;;;;;;8.63;4.70;;;;;;;28.15;41.14;100602.31;5043649;28;20106;-72
2021/08/23 09:03:52;;;;;;;12.68;5.30;;;;;;;28.17;41.28;100589.84;5036594;28;20037;-71
2021/08/23 09:06:19;;;;;;;10.88;4.70;;;;;;;28.04;39.33;100562.00;5034850;28;20099;-71
2021/08/23 09:08:47;;;;;;;7.85;4.00;;;;;;;28.14;41.10;100607.66;5030040;28;20450;-71
2021/08/23 09:11:15;;;;;;;6.40;4.18;;;;;;;28.36;38.85;100605.13;5032306;28;20032;-71
2021/08/23 09:13:56;;;;;;;10.70;4.32;;;;;;;28.32;38.98;100599.06;5031852;28;20035;-71
2021/08/23 09:16:26;;;;;;;7.50;4.38;;;;;;;28.37;39.97;100580.31;5032968;28;20072;-72
2021/08/23 09:18:52;;;;;;;6.68;3.90;;;;;;;28.61;37.81;100597.13;5034950;28;20092;-72
2021/08/23 09:21:27;;;;;;;12.57;4.40;;;;;;;28.77;34.83;100592.16;5032079;28;20034;-68
2021/08/23 09:23:57;;;;;;;16.35;5.00;;;;;;;28.92;38.17;100584.56;5052782;28;20028;-69
2021/08/23 09:26:22;;;;;;;13.68;4.30;;;;;;;28.96;36.36;100571.09;5052215;28;20041;-69
2021/08/23 09:29:02;;;;;;;7.78;4.18;;;;;;;29.31;37.13;100589.28;5047958;28;20029;-68
2021/08/23 09:31:32;;;;;;;7.35;4.13;;;;;;;29.46;35.49;100587.78;5033633;28;20071;-68
2021/08/23 09:34:01;;;;;;;9.15;4.18;;;;;;;29.31;33.54;100557.38;5031365;28;20288;-67
2021/08/23 09:36:27;;;;;;;7.97;4.00;;;;;;;29.39;33.90;100578.34;5034728;28;20474;-68
2021/08/23 09:39:04;;;;;;;6.47;3.70;;;;;;;29.56;35.79;100580.31;5033651;28;20041;-69
2021/08/23 09:41:30;;;;;;;6.93;4.15;;;;;;;29.59;35.62;100577.53;5038875;28;20056;-67
2021/08/23 09:44:07;;;;;;;9.98;3.80;;;;;;;29.56;37.14;100575.88;5032460;28;20060;-71
2021/08/23 09:46:34;;;;;;;10.07;3.78;;;;;;;29.41;34.05;100528.63;5032117;28;20021;-70
2021/08/23 09:49:07;;;;;;;12.93;4.80;;;;;;;29.65;33.24;100554.19;5032297;28;20112;-70
2021/08/23 09:51:36;;;;;;;7.25;3.70;;;;;;;29.80;33.34;100550.03;5032722;28;20022;-70
2021/08/23 09:54:18;;;;;;;4.78;3.38;;;;;;;29.98;31.43;100542.22;5034019;28;20021;-69
2021/08/23 09:56:53;;;;;;;7.50;4.03;;;;;;;30.19;36.32;100556.41;5034036;28;20029;-70
2021/08/23 09:59:23;;;;;;;5.15;3.58;;;;;;;30.28;34.47;100549.81;5031838;28;20083;-70
2021/08/23 10:01:51;;;;;;;10.05;3.72;;;;;;;30.14;33.82;100555.75;5031809;28;20079;-71
2021/08/23 10:04:19;;;;;;;7.07;3.47;;;;;;;30.38;33.51;100558.25;5033935;28;20030;-70
2021/08/23 10:06:46;;;;;;;6.38;3.80;;;;;;;30.28;33.06;100521.41;5034587;28;20025;-70
2021/08/23 10:09:38;;;;;;;5.38;3.40;;;;;;;30.65;32.97;100551.69;5036642;28;20035;-70
2021/08/23 10:12:05;;;;;;;7.88;3.80;;;;;;;30.68;33.21;100550.72;5052380;28;20363;-69
2021/08/23 10:14:30;;;;;;;6.60;3.35;;;;;;;30.76;31.74;100547.69;5033495;28;20028;-69
2021/08/23 10:16:56;;;;;;;6.07;3.42;;;;;;;30.84;32.54;100542.00;5033538;28;20434;-69
2021/08/23 10:19:22;;;;;;;5.15;3.60;;;;;;;30.97;30.32;100540.50;5033255;28;20486;-70
2021/08/23 10:21:50;;;;;;;6.45;3.78;;;;;;;30.98;32.67;100535.09;5030867;28;20033;-70
2021/08/23 10:24:30;;;;;;;4.65;3.85;;;;;;;31.04;32.53;100544.59;5032876;28;20487;-69
2021/08/23 10:26:57;;;;;;;5.22;3.90;;;;;;;31.06;30.72;100536.53;5032116;28;20088;-70
2021/08/23 10:29:23;;;;;;;7.70;4.07;;;;;;;31.15;32.55;100536.09;5033393;28;20021;-69
2021/08/23 10:31:49;;;;;;;5.70;3.42;;;;;;;31.15;30.06;100509.44;5031586;28;20025;-69
2021/08/23 10:34:17;;;;;;;16.48;5.78;;;;;;;31.16;29.68;100489.00;5031752;28;20025;-69
2021/08/23 10:36:45;;;;;;;8.55;3.80;;;;;;;31.56;28.29;100519.84;5030908;28;20022;-71
2021/08/23 10:41:36;;;;;;;5.65;3.08;;;;;;;31.55;26.04;100512.78;5043452;23;20058;-69
2021/08/23 10:44:04;;;;;;;12.65;3.65;;;;;;;31.80;27.44;100508.91;4983264;28;20031;-67
2021/08/23 10:46:32;;;;;;;8.07;3.75;;;;;;;32.03;27.08;100510.41;4979672;28;20037;-70
2021/08/23 10:49:02;;;;;;;4.45;3.33;;;;;;;32.25;30.51;100510.16;4973601;28;20039;-70
2021/08/23 10:51:38;;;;;;;6.10;3.50;;;;;;;32.51;27.75;100509.69;4975861;28;20177;-70
2021/08/23 10:54:28;;;;;;;6.47;3.10;;;;;;;32.61;25.12;100489.53;4991089;28;20509;-71
2021/08/23 10:56:59;;;;;;;;;;;;;;;32.71;24.82;100496.09;4979365;28;20125;-68
2021/08/23 10:59:36;;;;;;;5.13;3.15;;;;;;;32.69;25.57;100470.41;4979977;28;20311;-71
2021/08/23 11:02:02;;;;;;;7.70;3.35;;;;;;;33.10;25.91;100498.44;4979898;28;20030;-68
2021/08/23 11:04:38;;;;;;;4.85;3.40;;;;;;;33.29;24.79;100483.09;4991294;28;20026;-69
2021/08/23 11:07:04;;;;;;;5.18;3.28;;;;;;;33.30;24.34;100478.59;4992582;28;20539;-70
2021/08/23 11:09:42;;;;;;;6.20;3.90;;;;;;;33.12;27.54;100476.00;4992725;28;20436;-67
2021/08/23 11:12:14;;;;;;;12.57;5.28;;;;;;;32.70;26.59;100454.28;4992662;28;20041;-74
2021/08/23 11:14:51;;;;;;;14.70;6.75;;;;;;;33.03;26.55;100465.84;4992861;28;20027;-68
2021/08/23 11:17:31;;;;;;;5.20;3.28;;;;;;;33.06;25.33;100457.63;4992508;28;20365;-71
2021/08/23 11:19:59;;;;;;;4.55;3.33;;;;;;;33.23;25.82;100459.31;4992873;28;20018;-72
2021/08/23 11:22:24;;;;;;;4.60;2.85;;;;;;;33.35;24.80;100469.34;4982512;28;20515;-67